Time;durP1;ratioP1;P1;durP2;ratioP2;P2;SDS_P1;SDS_P2;PMS_P1;PMS_P2;Temp;Humidity;BMP_temperature;BMP_pressure;BME280_temperature;BME280_humidity;BME280_pressure;Samples;Min_cycle;Max_cycle;Signal;HPM_P1;HPM_P2
2023/07/15 00:00:43;;;;;;;7.60;3.45;;;19.00;99.90;;;;;;4990541;28;20050;-82
2023/07/15 00:03:09;;;;;;;5.32;3.28;;;18.90;99.90;;;;;;4990931;28;20041;-82
2023/07/15 00:05:35;;;;;;;4.05;3.20;;;18.90;99.90;;;;;;4990157;28;20034;-82
2023/07/15 00:08:05;;;;;;;4.60;3.30;;;18.80;99.90;;;;;;4990811;28;20042;-83
2023/07/15 00:10:36;;;;;;;6.70;3.35;;;18.80;99.90;;;;;;4991592;28;20117;-82
2023/07/15 00:13:02;;;;;;;7.85;4.20;;;18.80;99.90;;;;;;4992071;28;20034;-82
2023/07/15 00:15:28;;;;;;;5.05;3.72;;;18.80;99.90;;;;;;4991640;28;20034;-82
2023/07/15 00:17:54;;;;;;;8.55;3.88;;;18.80;99.90;;;;;;4990389;28;20027;-82
2023/07/15 00:20:19;;;;;;;6.57;3.97;;;18.80;99.90;;;;;;4993947;28;20034;-82
2023/07/15 00:22:46;;;;;;;4.05;3.47;;;18.80;99.90;;;;;;4994303;28;20409;-82
2023/07/15 00:25:17;;;;;;;5.22;3.70;;;18.80;99.90;;;;;;4992607;28;20038;-82
2023/07/15 00:27:44;;;;;;;7.07;3.72;;;18.80;99.90;;;;;;4993076;28;20407;-82
2023/07/15 00:30:13;;;;;;;7.22;3.40;;;18.80;99.90;;;;;;4993039;28;20039;-82
2023/07/15 00:32:45;;;;;;;5.03;3.75;;;18.80;99.90;;;;;;4993475;28;20117;-82
2023/07/15 00:35:28;;;;;;;8.68;6.28;;;18.80;99.90;;;;;;4994645;28;20416;-82
2023/07/15 00:37:58;;;;;;;10.20;5.20;;;18.80;99.90;;;;;;4992406;28;20052;-82
2023/07/15 00:40:25;;;;;;;7.15;3.60;;;18.80;99.90;;;;;;4994269;28;20026;-82
2023/07/15 00:42:51;;;;;;;6.25;4.38;;;18.80;99.90;;;;;;4993598;28;20046;-82
2023/07/15 00:45:17;;;;;;;7.35;3.78;;;18.80;99.90;;;;;;4992659;28;20029;-82
2023/07/15 00:47:50;;;;;;;6.78;5.25;;;18.80;99.90;;;;;;4994017;28;20037;-82
2023/07/15 00:50:16;;;;;;;8.05;4.28;;;18.80;99.90;;;;;;4994709;28;20124;-82
2023/07/15 00:52:42;;;;;;;8.52;4.05;;;18.80;99.90;;;;;;4992897;28;20913;-82
2023/07/15 00:55:08;;;;;;;5.97;3.75;;;18.80;99.90;;;;;;4994088;28;20061;-82
2023/07/15 00:57:34;;;;;;;5.10;3.40;;;18.80;99.90;;;;;;4993089;28;20076;-82
2023/07/15 01:00:00;;;;;;;5.20;3.40;;;18.80;99.90;;;;;;4992883;28;20034;-82
2023/07/15 01:02:26;;;;;;;4.60;3.15;;;18.80;99.90;;;;;;4994185;28;20173;-82
2023/07/15 01:04:52;;;;;;;5.30;3.55;;;18.80;99.90;;;;;;4994157;28;20117;-82
2023/07/15 01:07:17;;;;;;;7.63;5.00;;;18.80;99.90;;;;;;4993908;28;20018;-82
2023/07/15 01:09:44;;;;;;;8.60;6.07;;;18.70;99.90;;;;;;4993426;28;20699;-82
2023/07/15 01:12:09;;;;;;;10.43;6.22;;;18.70;99.90;;;;;;4993928;28;20947;-82
2023/07/15 01:14:36;;;;;;;7.90;4.20;;;18.70;99.90;;;;;;4996170;28;20062;-82
2023/07/15 01:17:02;;;;;;;5.63;4.13;;;18.70;99.90;;;;;;4996277;28;20504;-82
2023/07/15 01:19:27;;;;;;;4.07;3.40;;;18.70;99.90;;;;;;4997043;28;20029;-82
2023/07/15 01:21:53;;;;;;;6.82;3.50;;;18.70;99.90;;;;;;4997292;28;20038;-82
2023/07/15 01:24:21;;;;;;;5.03;3.67;;;18.70;99.90;;;;;;4994974;28;20117;-82
2023/07/15 01:26:47;;;;;;;5.85;3.90;;;18.70;99.90;;;;;;4996358;28;20040;-82
2023/07/15 01:29:13;;;;;;;8.60;3.42;;;18.70;99.90;;;;;;4995388;28;20056;-82
2023/07/15 01:31:40;;;;;;;9.05;5.93;;;18.70;99.90;;;;;;4995446;28;20602;-82
2023/07/15 01:34:07;;;;;;;6.38;4.10;;;18.70;99.90;;;;;;4995650;28;20033;-82
2023/07/15 01:36:33;;;;;;;5.78;3.97;;;18.60;99.90;;;;;;4993794;28;20061;-82
2023/07/15 01:38:59;;;;;;;8.00;5.75;;;18.60;99.90;;;;;;4993989;28;20109;-82
2023/07/15 01:41:24;;;;;;;8.10;5.20;;;18.60;99.90;;;;;;4992136;28;20046;-82
2023/07/15 01:43:50;;;;;;;6.95;4.00;;;18.60;99.90;;;;;;4995526;28;20541;-82
2023/07/15 01:46:15;;;;;;;10.00;5.18;;;18.60;99.90;;;;;;4993950;28;20035;-83
2023/07/15 01:48:41;;;;;;;7.47;4.80;;;18.60;99.90;;;;;;4997044;28;20018;-82
2023/07/15 01:51:06;;;;;;;7.82;4.05;;;18.50;99.90;;;;;;4994431;28;20022;-82
2023/07/15 01:53:32;;;;;;;6.28;3.95;;;18.60;99.90;;;;;;4994843;28;20035;-82
2023/07/15 01:55:58;;;;;;;9.18;4.43;;;18.60;99.90;;;;;;4993940;28;20701;-82
2023/07/15 01:58:23;;;;;;;6.63;3.40;;;18.60;99.90;;;;;;4995746;28;20029;-82
2023/07/15 02:00:49;;;;;;;7.80;4.70;;;18.60;99.90;;;;;;4991469;28;20050;-82
2023/07/15 02:03:15;;;;;;;6.50;4.38;;;18.60;99.90;;;;;;4992123;28;20035;-82
2023/07/15 02:05:41;;;;;;;4.65;3.80;;;18.60;99.90;;;;;;4991372;28;20113;-83
2023/07/15 02:08:06;;;;;;;10.13;6.85;;;18.70;99.90;;;;;;4987780;28;20037;-82
2023/07/15 02:10:32;;;;;;;8.68;5.50;;;18.70;99.90;;;;;;4992020;28;20026;-82
2023/07/15 02:12:58;;;;;;;4.10;3.50;;;18.70;99.90;;;;;;4995322;28;20044;-82
2023/07/15 02:15:23;;;;;;;8.52;3.88;;;18.70;99.90;;;;;;4996715;28;20034;-82
2023/07/15 02:17:49;;;;;;;9.27;3.47;;;18.80;99.90;;;;;;4996651;28;20038;-82
2023/07/15 02:20:15;;;;;;;8.27;3.88;;;18.80;99.90;;;;;;4997983;28;20034;-82
2023/07/15 02:22:41;;;;;;;7.85;4.15;;;18.90;99.90;;;;;;4997368;28;20050;-82
2023/07/15 02:25:07;;;;;;;5.88;3.63;;;18.90;99.90;;;;;;4994007;28;20578;-82
2023/07/15 02:27:32;;;;;;;7.93;3.72;;;18.80;99.90;;;;;;4996288;28;20749;-83
2023/07/15 02:29:58;;;;;;;6.40;4.00;;;18.80;99.90;;;;;;4995970;28;20026;-82
2023/07/15 02:32:38;;;;;;;7.97;3.42;;;18.80;99.90;;;;;;4996628;28;20089;-82
2023/07/15 02:35:08;;;;;;;17.45;9.13;;;18.80;99.90;;;;;;4996957;28;20054;-82
2023/07/15 02:37:34;;;;;;;10.18;6.53;;;18.80;99.90;;;;;;4997107;28;20030;-82
2023/07/15 02:40:00;;;;;;;12.25;6.72;;;18.80;99.90;;;;;;4997388;28;20026;-82
2023/07/15 02:42:25;;;;;;;10.63;5.90;;;18.70;99.90;;;;;;4994339;28;20040;-82
2023/07/15 02:44:51;;;;;;;7.18;4.53;;;18.70;99.90;;;;;;4997191;28;20029;-82
2023/07/15 02:47:16;;;;;;;7.00;3.88;;;18.60;99.90;;;;;;4996949;28;20032;-83
2023/07/15 02:49:42;;;;;;;6.30;3.63;;;18.60;99.90;;;;;;4996971;28;20037;-83
2023/07/15 02:52:08;;;;;;;5.78;3.25;;;18.60;99.90;;;;;;4996516;28;20033;-82
2023/07/15 02:54:33;;;;;;;5.68;3.60;;;18.60;99.90;;;;;;4996317;28;20030;-82
2023/07/15 02:56:59;;;;;;;6.65;3.65;;;18.60;99.90;;;;;;4993322;28;20089;-82
2023/07/15 02:59:24;;;;;;;6.20;3.40;;;18.70;99.90;;;;;;4991868;28;20030;-82
2023/07/15 03:01:50;;;;;;;7.65;3.20;;;18.60;99.90;;;;;;4993515;28;20034;-82
2023/07/15 03:04:17;;;;;;;4.95;3.40;;;18.60;99.90;;;;;;4994829;28;20121;-82
2023/07/15 03:06:43;;;;;;;6.00;3.30;;;18.70;99.90;;;;;;4993359;28;20034;-82
2023/07/15 03:09:08;;;;;;;5.68;3.42;;;18.70;99.90;;;;;;4997643;28;20030;-83
2023/07/15 03:11:34;;;;;;;4.25;3.13;;;18.70;99.90;;;;;;4996741;28;20034;-84
2023/07/15 03:13:59;;;;;;;8.32;3.40;;;18.70;99.90;;;;;;4997533;28;20033;-84
2023/07/15 03:16:25;;;;;;;4.35;2.70;;;18.80;99.90;;;;;;4995521;28;20061;-84
2023/07/15 03:18:50;;;;;;;5.05;3.35;;;18.80;99.90;;;;;;4997552;28;20049;-84
2023/07/15 03:21:16;;;;;;;7.57;3.50;;;18.80;99.90;;;;;;4995846;28;20034;-83
2023/07/15 03:23:41;;;;;;;6.60;3.60;;;18.80;99.90;;;;;;4998465;28;20053;-83
2023/07/15 03:26:07;;;;;;;7.32;3.47;;;18.80;99.90;;;;;;4996807;28;20034;-83
2023/07/15 03:28:32;;;;;;;5.25;3.42;;;18.80;99.90;;;;;;4997029;28;20121;-83
2023/07/15 03:30:58;;;;;;;6.35;3.55;;;18.80;99.90;;;;;;4994347;28;20045;-83
2023/07/15 03:33:24;;;;;;;5.22;3.30;;;18.80;99.90;;;;;;4993042;28;20029;-83
2023/07/15 03:35:49;;;;;;;5.85;3.00;;;18.80;99.90;;;;;;4993025;28;20029;-83
2023/07/15 03:38:15;;;;;;;5.88;3.40;;;18.80;99.90;;;;;;4992409;28;20034;-83
2023/07/15 03:40:41;;;;;;;6.22;3.30;;;18.80;99.90;;;;;;4994884;28;20041;-82
2023/07/15 03:43:06;;;;;;;8.57;3.28;;;18.80;99.90;;;;;;4989188;28;20026;-85
2023/07/15 03:45:32;;;;;;;4.30;3.45;;;18.80;99.90;;;;;;4990573;28;20030;-83
2023/07/15 03:47:57;;;;;;;4.93;3.25;;;18.70;99.90;;;;;;4988794;28;20091;-88
2023/07/15 03:50:24;;;;;;;6.22;3.50;;;18.70;99.90;;;;;;4988657;28;20058;-85
2023/07/15 03:52:52;;;;;;;7.65;3.35;;;18.70;99.90;;;;;;4991761;28;20041;-90
2023/07/15 03:55:17;;;;;;;5.22;2.85;;;18.70;99.90;;;;;;4989020;28;20796;-88
2023/07/15 03:57:43;;;;;;;3.85;2.95;;;18.70;99.90;;;;;;4987642;28;20030;-86
2023/07/15 04:00:17;;;;;;;5.18;3.50;;;18.80;99.90;;;;;;4989525;28;20129;-80
2023/07/15 04:02:44;;;;;;;6.53;3.10;;;18.80;99.90;;;;;;4991464;28;20030;-82
2023/07/15 04:05:11;;;;;;;7.00;3.30;;;18.80;99.90;;;;;;4991009;28;20030;-81
2023/07/15 04:07:37;;;;;;;7.03;3.72;;;18.80;99.90;;;;;;4990227;28;20030;-81
2023/07/15 04:10:03;;;;;;;4.65;3.20;;;18.80;99.90;;;;;;4988910;28;20396;-79
2023/07/15 04:12:28;;;;;;;6.30;3.53;;;18.80;99.90;;;;;;4988172;28;20121;-81
2023/07/15 04:14:54;;;;;;;4.75;2.90;;;18.90;99.90;;;;;;4991949;28;20168;-80
2023/07/15 04:17:19;;;;;;;6.03;2.95;;;18.90;99.90;;;;;;4990156;28;20056;-81
2023/07/15 04:19:45;;;;;;;4.63;3.22;;;19.00;99.90;;;;;;4990764;28;20447;-81
2023/07/15 04:22:11;;;;;;;3.72;2.88;;;19.10;99.90;;;;;;4988562;28;20113;-80
2023/07/15 04:24:36;;;;;;;4.10;2.80;;;19.10;99.90;;;;;;4988638;28;20069;-80
2023/07/15 04:27:02;;;;;;;5.13;3.00;;;19.20;99.90;;;;;;4990077;28;20014;-80
2023/07/15 04:29:32;;;;;;;4.93;2.80;;;19.30;99.90;;;;;;4990159;28;20053;-81
2023/07/15 04:31:58;;;;;;;4.00;2.75;;;19.30;99.90;;;;;;4992579;28;20030;-81
2023/07/15 04:34:23;;;;;;;4.13;3.00;;;19.40;99.90;;;;;;4990418;28;20082;-81
2023/07/15 04:36:49;;;;;;;5.07;2.88;;;19.50;99.90;;;;;;4990648;28;20034;-81
2023/07/15 04:39:15;;;;;;;6.57;2.80;;;19.50;99.90;;;;;;4990515;28;20501;-81
2023/07/15 04:41:40;;;;;;;4.00;2.85;;;19.50;99.90;;;;;;4989238;28;20089;-81
2023/07/15 04:44:06;;;;;;;6.35;2.78;;;19.60;99.90;;;;;;4990929;28;20033;-81
2023/07/15 04:46:32;;;;;;;4.07;2.50;;;19.60;99.90;;;;;;4989782;28;20058;-81
2023/07/15 04:48:58;;;;;;;4.80;3.08;;;19.70;99.90;;;;;;4992913;28;20042;-81
2023/07/15 04:51:23;;;;;;;5.95;2.90;;;19.80;99.90;;;;;;4993980;28;20038;-81
2023/07/15 04:53:49;;;;;;;5.35;2.90;;;19.80;99.90;;;;;;4992808;28;20034;-81
2023/07/15 04:56:15;;;;;;;7.03;2.90;;;19.90;99.90;;;;;;4993787;28;20050;-81
2023/07/15 04:58:40;;;;;;;4.28;2.80;;;20.00;99.90;;;;;;4992941;28;20042;-80
2023/07/15 05:01:06;;;;;;;4.43;2.65;;;20.00;99.90;;;;;;4993276;28;20038;-81
2023/07/15 05:03:33;;;;;;;5.07;3.00;;;20.10;99.90;;;;;;4993822;28;20038;-81
2023/07/15 05:05:58;;;;;;;4.30;3.10;;;20.10;99.90;;;;;;4993809;28;20504;-81
2023/07/15 05:08:24;;;;;;;3.67;2.78;;;20.20;99.90;;;;;;4994184;28;20084;-80
2023/07/15 05:10:51;;;;;;;4.50;2.70;;;20.30;99.90;;;;;;4992172;28;20484;-81
2023/07/15 05:13:17;;;;;;;5.93;2.65;;;20.40;99.90;;;;;;4993055;28;20050;-80
2023/07/15 05:15:43;;;;;;;4.68;2.80;;;20.40;99.90;;;;;;4992532;28;20034;-81
2023/07/15 05:18:09;;;;;;;4.60;2.75;;;20.50;99.90;;;;;;4993879;28;20081;-81
2023/07/15 05:20:35;;;;;;;3.92;2.63;;;20.60;99.90;;;;;;4994544;28;20090;-80
2023/07/15 05:23:02;;;;;;;4.03;2.85;;;20.70;99.90;;;;;;4991941;28;20029;-81
2023/07/15 05:25:28;;;;;;;4.10;2.72;;;20.80;99.90;;;;;;4990002;28;20493;-81
2023/07/15 05:27:54;;;;;;;5.93;2.95;;;20.90;99.90;;;;;;4990951;28;20038;-81
2023/07/15 05:30:20;;;;;;;3.78;2.67;;;21.00;99.90;;;;;;4988757;28;20409;-81
2023/07/15 05:32:45;;;;;;;4.78;2.67;;;21.10;99.90;;;;;;4989178;28;20035;-80
2023/07/15 05:35:11;;;;;;;4.05;2.75;;;21.20;99.90;;;;;;4989507;28;20093;-81
2023/07/15 05:37:37;;;;;;;3.13;2.38;;;21.30;99.90;;;;;;4987015;28;20035;-81
2023/07/15 05:40:09;;;;;;;3.53;2.58;;;21.40;99.90;;;;;;4987954;28;20069;-81
2023/07/15 05:42:41;;;;;;;4.22;2.65;;;21.50;99.90;;;;;;4989799;28;20034;-81
2023/07/15 05:45:08;;;;;;;4.90;2.55;;;21.70;99.90;;;;;;4986888;28;20041;-81
2023/07/15 05:47:34;;;;;;;4.07;2.67;;;21.90;99.90;;;;;;4990575;28;21468;-81
2023/07/15 05:50:00;;;;;;;4.07;2.58;;;22.00;99.90;;;;;;4988328;28;20041;-81
2023/07/15 05:52:26;;;;;;;6.20;2.35;;;22.10;99.90;;;;;;4986861;28;20030;-81
2023/07/15 05:54:51;;;;;;;3.42;2.38;;;22.30;99.90;;;;;;4984691;28;20195;-81
2023/07/15 05:57:17;;;;;;;4.80;2.72;;;22.40;99.90;;;;;;4990537;28;20029;-81
2023/07/15 05:59:43;;;;;;;5.07;2.45;;;22.60;99.90;;;;;;4990530;28;20034;-81
2023/07/15 06:02:08;;;;;;;6.50;2.42;;;22.80;99.90;;;;;;4990876;28;20076;-82
2023/07/15 06:04:34;;;;;;;4.43;2.40;;;23.00;99.90;;;;;;4990659;28;20489;-81
2023/07/15 06:06:59;;;;;;;4.80;2.40;;;23.10;99.90;;;;;;4988465;28;20471;-81
2023/07/15 06:09:25;;;;;;;4.85;2.33;;;23.20;99.90;;;;;;4991151;28;20400;-82
2023/07/15 06:11:50;;;;;;;3.80;2.45;;;23.40;99.90;;;;;;4991859;28;20171;-81
2023/07/15 06:14:16;;;;;;;3.00;2.42;;;23.50;99.90;;;;;;4987666;28;20042;-81
2023/07/15 06:16:41;;;;;;;3.30;2.00;;;23.70;99.90;;;;;;4985511;28;20034;-81
2023/07/15 06:19:07;;;;;;;3.15;2.25;;;23.80;99.90;;;;;;4986809;28;20022;-81
2023/07/15 06:21:33;;;;;;;3.28;2.35;;;24.00;99.90;;;;;;4988330;28;20030;-80
2023/07/15 06:23:58;;;;;;;5.30;2.38;;;24.10;99.90;;;;;;4990534;28;20129;-81
2023/07/15 06:26:24;;;;;;;3.40;2.20;;;24.20;99.90;;;;;;4986294;28;20096;-81
2023/07/15 06:28:49;;;;;;;5.22;2.40;;;24.40;99.90;;;;;;4991694;28;20072;-81
2023/07/15 06:31:15;;;;;;;3.63;2.20;;;24.50;99.90;;;;;;4990785;28;20034;-81
2023/07/15 06:33:41;;;;;;;3.80;2.33;;;24.70;99.90;;;;;;4989907;28;20126;-81
2023/07/15 06:36:07;;;;;;;3.20;2.38;;;24.80;99.90;;;;;;4988841;28;20037;-81
2023/07/15 06:38:32;;;;;;;5.25;2.35;;;24.90;99.90;;;;;;4991259;28;20765;-81
2023/07/15 06:40:58;;;;;;;4.13;2.50;;;25.10;99.90;;;;;;4987916;28;20034;-81
2023/07/15 06:43:24;;;;;;;3.88;2.47;;;25.20;99.90;;;;;;4987525;28;20038;-81
2023/07/15 06:45:50;;;;;;;3.47;2.20;;;25.30;99.90;;;;;;4988931;28;20035;-81
2023/07/15 06:48:18;;;;;;;3.70;2.20;;;25.50;99.90;;;;;;4988389;28;20680;-81
2023/07/15 06:50:43;;;;;;;5.20;2.55;;;25.60;99.90;;;;;;4988605;28;20520;-81
2023/07/15 06:53:09;;;;;;;17.55;2.20;;;25.70;99.90;;;;;;4987738;28;20040;-81
2023/07/15 06:55:36;;;;;;;3.60;2.10;;;25.80;99.90;;;;;;4988305;28;20026;-81
2023/07/15 06:58:02;;;;;;;4.57;2.13;;;25.90;99.90;;;;;;4988009;28;20030;-80
2023/07/15 07:00:28;;;;;;;3.90;2.00;;;25.90;99.90;;;;;;4987696;28;20027;-80
2023/07/15 07:02:54;;;;;;;6.65;2.33;;;26.00;99.90;;;;;;4988728;28;20030;-81
2023/07/15 07:05:19;;;;;;;4.63;2.20;;;26.10;99.90;;;;;;4986239;28;20087;-81
2023/07/15 07:07:45;;;;;;;8.90;2.35;;;26.20;99.90;;;;;;4987800;28;20037;-81
2023/07/15 07:10:11;;;;;;;5.28;2.20;;;26.40;99.90;;;;;;4987768;28;20412;-81
2023/07/15 07:12:37;;;;;;;5.72;2.78;;;26.40;99.90;;;;;;4985942;28;20046;-81
2023/07/15 07:15:04;;;;;;;5.18;2.50;;;26.40;99.90;;;;;;4986652;28;20026;-80
2023/07/15 07:17:29;;;;;;;4.30;2.40;;;26.50;99.90;;;;;;4986307;28;20034;-81
2023/07/15 07:19:55;;;;;;;3.95;2.17;;;26.50;99.90;;;;;;4987472;28;20049;-80
2023/07/15 07:22:20;;;;;;;4.43;2.50;;;26.60;99.90;;;;;;4986270;28;20030;-81
2023/07/15 07:24:47;;;;;;;4.03;2.00;;;26.70;99.90;;;;;;4989507;28;20488;-80
2023/07/15 07:27:12;;;;;;;3.33;1.90;;;26.70;99.90;;;;;;4987313;28;20030;-81
2023/07/15 07:29:39;;;;;;;4.57;2.20;;;26.80;99.90;;;;;;4986768;28;20043;-81
2023/07/15 07:32:05;;;;;;;4.10;2.30;;;26.80;99.90;;;;;;4987997;28;20062;-81
2023/07/15 07:34:31;;;;;;;4.60;2.35;;;26.90;99.90;;;;;;4985961;28;20038;-81
2023/07/15 07:36:57;;;;;;;4.03;2.35;;;27.00;99.90;;;;;;4988939;28;21380;-81
2023/07/15 07:39:22;;;;;;;5.93;2.33;;;27.00;99.90;;;;;;4989178;28;20026;-81
2023/07/15 07:41:48;;;;;;;2.92;1.90;;;27.10;99.90;;;;;;4988373;28;20030;-81
2023/07/15 07:44:14;;;;;;;3.85;2.13;;;27.10;99.90;;;;;;4987537;28;20072;-82
2023/07/15 07:46:39;;;;;;;2.75;1.95;;;27.20;99.90;;;;;;4985570;28;20065;-81
2023/07/15 07:49:05;;;;;;;2.53;2.00;;;27.30;99.90;;;;;;4987104;28;20613;-81
2023/07/15 07:51:30;;;;;;;6.03;2.30;;;27.40;99.90;;;;;;4987656;28;20092;-81
2023/07/15 07:53:56;;;;;;;4.35;1.98;;;27.50;99.90;;;;;;4987762;28;20027;-81
2023/07/15 07:56:21;;;;;;;3.55;2.17;;;27.70;99.90;;;;;;4986815;28;20035;-80
2023/07/15 07:58:48;;;;;;;2.53;1.92;;;27.80;99.90;;;;;;4987532;28;20026;-81
2023/07/15 08:01:14;;;;;;;4.88;1.75;;;27.90;99.90;;;;;;4985897;28;20022;-81
2023/07/15 08:03:40;;;;;;;3.17;1.90;;;28.00;99.90;;;;;;4990458;28;20034;-80
2023/07/15 08:06:05;;;;;;;3.33;1.98;;;28.10;99.90;;;;;;4987479;28;20030;-81
2023/07/15 08:08:31;;;;;;;5.22;1.88;;;28.20;99.90;;;;;;4988250;28;20121;-81
2023/07/15 08:10:56;;;;;;;20.10;4.85;;;28.30;99.90;;;;;;4989614;28;20079;-82
2023/07/15 08:13:22;;;;;;;4.28;2.15;;;28.40;99.90;;;;;;4990383;28;20033;-81
2023/07/15 08:15:48;;;;;;;2.85;1.70;;;28.40;99.90;;;;;;4987859;28;20045;-80
2023/07/15 08:18:13;;;;;;;3.53;1.70;;;28.50;99.90;;;;;;4989380;28;20116;-81
2023/07/15 08:20:42;;;;;;;3.00;1.60;;;28.60;99.90;;;;;;4988184;28;20084;-81
2023/07/15 08:23:08;;;;;;;3.78;2.60;;;28.60;99.90;;;;;;4988389;28;20034;-81
2023/07/15 08:25:36;;;;;;;3.92;2.00;;;28.80;99.90;;;;;;4991981;28;20096;-80
2023/07/15 08:28:01;;;;;;;3.45;2.25;;;28.90;99.90;;;;;;4989338;28;20649;-81
2023/07/15 08:30:27;;;;;;;5.35;2.13;;;29.00;99.90;;;;;;4993174;28;20025;-81
2023/07/15 08:32:52;;;;;;;5.40;2.13;;;29.00;99.90;;;;;;4992931;28;20018;-81
2023/07/15 08:35:18;;;;;;;4.47;2.00;;;29.00;99.90;;;;;;4992486;28;20076;-81
2023/07/15 08:37:44;;;;;;;3.03;2.00;;;29.00;99.90;;;;;;4993822;28;20130;-81
2023/07/15 08:40:13;;;;;;;4.57;2.15;;;29.10;99.90;;;;;;4993203;28;20035;-81
2023/07/15 08:42:40;;;;;;;4.43;1.90;;;29.20;99.90;;;;;;4990658;28;20069;-80
2023/07/15 08:45:06;;;;;;;3.50;1.90;;;29.30;99.90;;;;;;4988078;28;20512;-81
2023/07/15 08:47:31;;;;;;;4.53;1.85;;;29.30;99.90;;;;;;4990325;28;20026;-81
2023/07/15 08:50:02;;;;;;;2.88;1.60;;;29.30;99.90;;;;;;4990220;28;20030;-81
2023/07/15 08:52:30;;;;;;;2.38;1.70;;;29.40;99.90;;;;;;4987883;28;20055;-81
2023/07/15 08:54:55;;;;;;;3.03;1.80;;;29.50;99.90;;;;;;4988367;28;20026;-81
2023/07/15 08:57:22;;;;;;;2.13;1.85;;;29.60;99.90;;;;;;4986012;28;20470;-81
2023/07/15 08:59:56;;;;;;;3.42;1.52;;;29.60;99.90;;;;;;4990824;28;20034;-81
2023/07/15 09:02:22;;;;;;;2.90;1.90;;;29.70;99.90;;;;;;4990027;28;20066;-81
2023/07/15 09:04:47;;;;;;;5.00;1.88;;;29.90;99.90;;;;;;4990105;28;20037;-81
2023/07/15 09:07:13;;;;;;;5.32;2.08;;;29.90;99.40;;;;;;4989165;28;20022;-81
2023/07/15 09:09:39;;;;;;;3.72;1.73;;;29.90;99.00;;;;;;4989433;28;20156;-81
2023/07/15 09:12:06;;;;;;;2.67;1.80;;;30.00;98.10;;;;;;4988769;28;20100;-81
2023/07/15 09:14:44;;;;;;;3.15;1.80;;;30.00;97.60;;;;;;4990784;28;20050;-81
2023/07/15 09:17:15;;;;;;;4.28;1.80;;;30.10;97.90;;;;;;4987183;28;20046;-81
2023/07/15 09:19:43;;;;;;;3.65;1.80;;;30.20;98.10;;;;;;4990789;28;20428;-81
2023/07/15 09:22:09;;;;;;;4.15;1.90;;;30.20;98.00;;;;;;4988393;28;20053;-81
2023/07/15 09:24:37;;;;;;;6.63;2.00;;;30.40;97.90;;;;;;4986427;28;20061;-81
2023/07/15 09:27:03;;;;;;;2.20;1.77;;;30.50;97.00;;;;;;4988545;28;20053;-81
2023/07/15 09:29:30;;;;;;;5.63;1.90;;;30.50;97.10;;;;;;4991693;28;20512;-82
2023/07/15 09:31:56;;;;;;;2.60;1.77;;;30.60;97.40;;;;;;4985094;28;20061;-81
2023/07/15 09:34:23;;;;;;;2.55;1.70;;;30.70;96.90;;;;;;4986166;28;20052;-82
2023/07/15 09:36:49;;;;;;;3.45;1.85;;;30.90;96.90;;;;;;4987306;28;20061;-81
2023/07/15 09:39:19;;;;;;;3.67;1.80;;;31.10;95.40;;;;;;4987367;28;20125;-81
2023/07/15 09:41:59;;;;;;;2.40;1.60;;;31.30;95.70;;;;;;4988158;28;20030;-81
2023/07/15 09:44:43;;;;;;;2.65;1.60;;;31.60;95.40;;;;;;4989866;28;20038;-81
2023/07/15 09:47:09;;;;;;;;;;;31.90;94.60;;;;;;4989680;28;20042;-81
2023/07/15 09:49:35;;;;;;;3.53;1.92;;;32.20;93.60;;;;;;4990836;28;19934;-81
2023/07/15 09:52:03;;;;;;;2.13;1.70;;;32.40;91.70;;;;;;4991179;28;20392;-81
2023/07/15 09:54:31;;;;;;;2.63;1.77;;;32.70;92.80;;;;;;4991567;28;20084;-82
2023/07/15 09:57:01;;;;;;;3.85;1.80;;;32.90;91.70;;;;;;4988033;28;20089;-81
2023/07/15 09:59:33;;;;;;;3.55;1.88;;;33.00;90.10;;;;;;4990423;28;20117;-81
2023/07/15 10:02:33;;;;;;;6.03;2.13;;;33.20;92.30;;;;;;4989553;28;20042;-81
2023/07/15 10:05:04;;;;;;;2.60;1.50;;;33.30;90.30;;;;;;4986172;28;20962;-81
2023/07/15 10:07:30;;;;;;;5.00;1.80;;;33.50;90.60;;;;;;4989839;28;20035;-81
2023/07/15 10:09:59;;;;;;;2.70;1.73;;;33.70;88.80;;;;;;4993408;28;20022;-81
2023/07/15 10:12:29;;;;;;;3.38;1.50;;;33.80;87.70;;;;;;4991366;28;20311;-82
2023/07/15 10:14:56;;;;;;;3.38;1.60;;;33.90;85.00;;;;;;4986895;28;20022;-82
2023/07/15 10:17:22;;;;;;;3.00;1.50;;;34.00;88.60;;;;;;4989132;28;20035;-82
2023/07/15 10:19:49;;;;;;;4.43;2.00;;;34.10;83.70;;;;;;4992771;28;20029;-81
2023/07/15 10:22:21;;;;;;;3.28;1.58;;;34.10;83.60;;;;;;4990288;28;20042;-81
2023/07/15 10:24:56;;;;;;;3.28;1.50;;;34.50;84.20;;;;;;4992184;28;20153;-81
2023/07/15 10:27:29;;;;;;;3.85;1.90;;;34.60;83.80;;;;;;4992448;28;20026;-81
2023/07/15 10:30:17;;;;;;;2.35;1.60;;;34.80;85.20;;;;;;4992590;28;20027;-81
2023/07/15 10:33:09;;;;;;;3.60;2.15;;;34.90;82.30;;;;;;5006628;28;20034;-81
2023/07/15 10:35:46;;;;;;;2.65;1.40;;;34.90;81.80;;;;;;4990179;28;20056;-82
2023/07/15 10:38:21;;;;;;;2.25;1.52;;;34.90;79.60;;;;;;4992198;28;20038;-81
2023/07/15 10:40:48;;;;;;;2.33;1.50;;;34.80;79.70;;;;;;4992862;28;20516;-82
2023/07/15 10:43:35;;;;;;;2.45;1.55;;;35.00;79.80;;;;;;4995180;28;20041;-82
2023/07/15 10:46:12;;;;;;;1.75;1.40;;;35.20;77.90;;;;;;4993256;28;20053;-81
2023/07/15 10:48:38;;;;;;;4.07;1.50;;;35.30;78.30;;;;;;4994427;28;20437;-82
2023/07/15 10:51:06;;;;;;;2.63;1.60;;;35.50;78.10;;;;;;4993004;28;20105;-82
2023/07/15 10:53:32;;;;;;;3.33;1.65;;;35.50;78.00;;;;;;4990947;28;20492;-81
2023/07/15 10:56:01;;;;;;;3.03;1.60;;;35.80;77.00;;;;;;4990319;28;20416;-81
2023/07/15 10:58:32;;;;;;;3.97;2.05;;;35.90;77.20;;;;;;4990490;28;20168;-82
2023/07/15 11:01:03;;;;;;;5.60;2.20;;;36.10;74.70;;;;;;4990542;28;20034;-81
2023/07/15 11:03:31;;;;;;;4.78;1.80;;;36.20;74.00;;;;;;4988687;28;20033;-82
2023/07/15 11:06:03;;;;;;;2.17;1.60;;;36.30;75.80;;;;;;4986223;28;20100;-81
2023/07/15 11:08:30;;;;;;;2.53;1.65;;;36.40;74.20;;;;;;4990250;28;20113;-81
2023/07/15 11:11:00;;;;;;;3.72;1.83;;;36.60;74.20;;;;;;4992544;28;20113;-81
2023/07/15 11:13:25;;;;;;;3.50;1.67;;;36.60;69.90;;;;;;4991926;28;20030;-82
2023/07/15 11:15:52;;;;;;;4.63;1.95;;;36.50;69.50;;;;;;4989418;28;20092;-82
2023/07/15 11:18:19;;;;;;;2.33;1.65;;;36.70;72.50;;;;;;4991171;28;20076;-81
2023/07/15 11:20:46;;;;;;;2.72;1.60;;;36.70;71.00;;;;;;4990401;28;20139;-81
2023/07/15 11:23:13;;;;;;;2.05;1.60;;;36.80;69.80;;;;;;4992072;28;20215;-81
2023/07/15 11:25:39;;;;;;;4.47;2.20;;;36.80;70.90;;;;;;4989913;28;20119;-81
2023/07/15 11:28:05;;;;;;;4.55;1.60;;;36.90;68.40;;;;;;4989848;28;20383;-81
2023/07/15 11:30:39;;;;;;;2.47;1.63;;;36.80;68.40;;;;;;4990022;28;20114;-81
2023/07/15 11:33:05;;;;;;;3.35;1.88;;;36.70;69.20;;;;;;4990988;28;20038;-81
2023/07/15 11:35:34;;;;;;;2.67;1.70;;;36.80;68.90;;;;;;4990516;28;20261;-81
2023/07/15 11:38:06;;;;;;;3.17;1.60;;;36.80;68.30;;;;;;4990906;28;20029;-81
2023/07/15 11:40:34;;;;;;;3.40;1.60;;;36.80;69.80;;;;;;4989121;28;20045;-81
2023/07/15 11:43:00;;;;;;;3.63;1.63;;;36.90;66.60;;;;;;4990353;28;20041;-81
2023/07/15 11:45:26;;;;;;;3.10;1.67;;;36.90;64.90;;;;;;4990530;28;20113;-81
2023/07/15 11:47:53;;;;;;;2.50;1.75;;;37.00;65.00;;;;;;4990402;28;20453;-81
2023/07/15 11:50:25;;;;;;;3.20;1.50;;;37.30;62.20;;;;;;4988672;28;20045;-82
2023/07/15 11:52:50;;;;;;;2.40;1.60;;;37.50;64.80;;;;;;4988825;28;20030;-81
2023/07/15 11:55:24;;;;;;;2.78;1.50;;;37.40;63.10;;;;;;4990392;28;20034;-82
2023/07/15 11:57:50;;;;;;;3.97;1.80;;;37.30;63.60;;;;;;4990114;28;20038;-81
2023/07/15 12:00:33;;;;;;;3.22;1.42;;;37.40;62.20;;;;;;4990487;28;20049;-81
2023/07/15 12:03:07;;;;;;;6.20;1.83;;;37.30;63.50;;;;;;4989536;28;20038;-81
2023/07/15 12:05:37;;;;;;;1.90;1.60;;;37.40;61.60;;;;;;4988707;28;20392;-81
2023/07/15 12:08:13;;;;;;;4.63;1.50;;;37.20;63.60;;;;;;4988242;28;20022;-81
2023/07/15 12:10:52;;;;;;;2.95;1.70;;;37.40;63.40;;;;;;4987983;28;21234;-81
2023/07/15 12:13:17;;;;;;;2.00;1.40;;;37.40;61.80;;;;;;4988278;28;20049;-82
2023/07/15 12:15:43;;;;;;;3.65;1.83;;;37.30;60.80;;;;;;4987141;28;20030;-81
2023/07/15 12:18:09;;;;;;;2.72;1.50;;;37.60;63.00;;;;;;4987699;28;20190;-81
2023/07/15 12:20:34;;;;;;;3.38;1.50;;;37.70;60.80;;;;;;4986242;28;20037;-82
2023/07/15 12:23:00;;;;;;;1.98;1.35;;;37.80;62.50;;;;;;4986914;28;20065;-82
2023/07/15 12:25:25;;;;;;;3.05;1.73;;;38.00;61.70;;;;;;4984292;28;20034;-81
2023/07/15 12:27:51;;;;;;;2.05;1.63;;;38.10;60.10;;;;;;4987561;28;20025;-81
2023/07/15 12:30:17;;;;;;;4.68;1.40;;;38.20;59.70;;;;;;4986156;28;20184;-82
2023/07/15 12:32:42;;;;;;;5.07;1.50;;;38.10;60.40;;;;;;4986924;28;20092;-82
2023/07/15 12:35:08;;;;;;;2.53;1.50;;;38.00;59.90;;;;;;4987821;28;20030;-82
2023/07/15 12:37:35;;;;;;;3.97;1.70;;;38.20;58.50;;;;;;4988408;28;20033;-82
2023/07/15 12:40:03;;;;;;;4.60;1.90;;;38.10;58.40;;;;;;4989542;28;20034;-82
2023/07/15 12:42:28;;;;;;;2.58;1.52;;;38.20;58.80;;;;;;4988064;28;20042;-81
2023/07/15 12:44:54;;;;;;;2.20;1.50;;;38.20;58.30;;;;;;4988529;28;20030;-82
2023/07/15 12:47:20;;;;;;;3.13;1.40;;;38.20;59.30;;;;;;4989802;28;20034;-82